sensor_id;sensor_type;location;lat;lon;timestamp;P1;durP1;ratioP1;P2;durP2;ratioP2
80211;SDS011;70434;37.956;23.722;2023-08-20T00:01:32;8.77;;;3.40;;
80211;SDS011;70434;37.956;23.722;2023-08-20T00:03:58;8.40;;;3.63;;
80211;SDS011;70434;37.956;23.722;2023-08-20T00:06:24;8.82;;;3.60;;
80211;SDS011;70434;37.956;23.722;2023-08-20T00:08:50;8.90;;;3.55;;
80211;SDS011;70434;37.956;23.722;2023-08-20T00:11:17;7.53;;;2.92;;
80211;SDS011;70434;37.956;23.722;2023-08-20T00:13:42;6.70;;;3.70;;
80211;SDS011;70434;37.956;23.722;2023-08-20T00:16:09;7.72;;;3.50;;
80211;SDS011;70434;37.956;23.722;2023-08-20T00:18:35;5.43;;;3.42;;
80211;SDS011;70434;37.956;23.722;2023-08-20T00:21:01;8.25;;;4.00;;
80211;SDS011;70434;37.956;23.722;2023-08-20T00:23:28;5.97;;;3.63;;
80211;SDS011;70434;37.956;23.722;2023-08-20T00:25:53;8.13;;;3.85;;
80211;SDS011;70434;37.956;23.722;2023-08-20T00:28:20;6.72;;;3.42;;
80211;SDS011;70434;37.956;23.722;2023-08-20T00:30:46;5.88;;;3.83;;
80211;SDS011;70434;37.956;23.722;2023-08-20T00:33:12;7.97;;;4.10;;
80211;SDS011;70434;37.956;23.722;2023-08-20T00:35:38;8.07;;;3.95;;
80211;SDS011;70434;37.956;23.722;2023-08-20T00:38:05;8.30;;;4.05;;
80211;SDS011;70434;37.956;23.722;2023-08-20T00:40:31;6.38;;;4.47;;
80211;SDS011;70434;37.956;23.722;2023-08-20T00:42:56;7.90;;;5.00;;
80211;SDS011;70434;37.956;23.722;2023-08-20T00:45:22;8.85;;;4.90;;
80211;SDS011;70434;37.956;23.722;2023-08-20T00:47:49;10.20;;;4.82;;
80211;SDS011;70434;37.956;23.722;2023-08-20T00:50:16;7.43;;;4.78;;
80211;SDS011;70434;37.956;23.722;2023-08-20T00:52:43;8.20;;;5.38;;
80211;SDS011;70434;37.956;23.722;2023-08-20T00:55:10;10.15;;;5.45;;
80211;SDS011;70434;37.956;23.722;2023-08-20T00:57:38;7.90;;;4.82;;
80211;SDS011;70434;37.956;23.722;2023-08-20T01:00:05;8.50;;;5.93;;
80211;SDS011;70434;37.956;23.722;2023-08-20T01:02:36;6.55;;;5.13;;
80211;SDS011;70434;37.956;23.722;2023-08-20T01:05:02;10.55;;;4.32;;
80211;SDS011;70434;37.956;23.722;2023-08-20T01:10:28;8.23;;;3.75;;
80211;SDS011;70434;37.956;23.722;2023-08-20T01:13:17;7.22;;;3.53;;
80211;SDS011;70434;37.956;23.722;2023-08-20T01:15:44;7.00;;;3.83;;
80211;SDS011;70434;37.956;23.722;2023-08-20T01:18:09;6.25;;;3.75;;
80211;SDS011;70434;37.956;23.722;2023-08-20T01:20:36;7.53;;;3.70;;
80211;SDS011;70434;37.956;23.722;2023-08-20T01:29:19;7.55;;;4.20;;
80211;SDS011;70434;37.956;23.722;2023-08-20T01:31:45;9.20;;;4.53;;
80211;SDS011;70434;37.956;23.722;2023-08-20T01:34:12;7.50;;;4.45;;
80211;SDS011;70434;37.956;23.722;2023-08-20T01:36:38;8.38;;;5.20;;
80211;SDS011;70434;37.956;23.722;2023-08-20T01:39:04;7.28;;;5.07;;
80211;SDS011;70434;37.956;23.722;2023-08-20T01:41:30;9.02;;;5.60;;
80211;SDS011;70434;37.956;23.722;2023-08-20T01:43:56;9.10;;;5.22;;
80211;SDS011;70434;37.956;23.722;2023-08-20T01:46:22;8.45;;;5.53;;
80211;SDS011;70434;37.956;23.722;2023-08-20T01:48:47;10.10;;;4.93;;
80211;SDS011;70434;37.956;23.722;2023-08-20T01:51:13;7.20;;;5.50;;
80211;SDS011;70434;37.956;23.722;2023-08-20T01:53:39;7.55;;;5.47;;
80211;SDS011;70434;37.956;23.722;2023-08-20T01:56:10;9.02;;;4.90;;
80211;SDS011;70434;37.956;23.722;2023-08-20T01:58:37;10.90;;;5.13;;
80211;SDS011;70434;37.956;23.722;2023-08-20T02:01:02;7.85;;;4.97;;
80211;SDS011;70434;37.956;23.722;2023-08-20T02:03:28;8.65;;;4.72;;
80211;SDS011;70434;37.956;23.722;2023-08-20T02:05:54;10.25;;;5.07;;
80211;SDS011;70434;37.956;23.722;2023-08-20T02:08:20;9.15;;;5.28;;
80211;SDS011;70434;37.956;23.722;2023-08-20T02:10:45;7.07;;;4.68;;
80211;SDS011;70434;37.956;23.722;2023-08-20T02:13:11;9.05;;;4.97;;
80211;SDS011;70434;37.956;23.722;2023-08-20T02:15:37;8.02;;;4.90;;
80211;SDS011;70434;37.956;23.722;2023-08-20T02:18:03;10.27;;;4.95;;
80211;SDS011;70434;37.956;23.722;2023-08-20T02:20:29;12.13;;;5.93;;
80211;SDS011;70434;37.956;23.722;2023-08-20T02:22:54;10.50;;;5.35;;
80211;SDS011;70434;37.956;23.722;2023-08-20T02:25:20;7.22;;;5.20;;
80211;SDS011;70434;37.956;23.722;2023-08-20T02:27:46;9.27;;;5.57;;
80211;SDS011;70434;37.956;23.722;2023-08-20T02:30:12;10.35;;;5.13;;
80211;SDS011;70434;37.956;23.722;2023-08-20T02:32:40;7.78;;;4.68;;
80211;SDS011;70434;37.956;23.722;2023-08-20T02:35:06;8.50;;;5.43;;
80211;SDS011;70434;37.956;23.722;2023-08-20T02:37:32;9.32;;;4.78;;
80211;SDS011;70434;37.956;23.722;2023-08-20T02:39:58;7.88;;;4.65;;
80211;SDS011;70434;37.956;23.722;2023-08-20T02:42:23;10.05;;;4.93;;
80211;SDS011;70434;37.956;23.722;2023-08-20T02:44:49;9.98;;;5.30;;
80211;SDS011;70434;37.956;23.722;2023-08-20T02:47:15;9.95;;;4.70;;
80211;SDS011;70434;37.956;23.722;2023-08-20T02:49:40;7.63;;;4.50;;
80211;SDS011;70434;37.956;23.722;2023-08-20T02:52:06;9.52;;;4.80;;
80211;SDS011;70434;37.956;23.722;2023-08-20T02:54:32;10.35;;;4.40;;
80211;SDS011;70434;37.956;23.722;2023-08-20T02:56:59;5.93;;;4.00;;
80211;SDS011;70434;37.956;23.722;2023-08-20T02:59:25;6.75;;;4.60;;
80211;SDS011;70434;37.956;23.722;2023-08-20T03:01:51;8.90;;;4.28;;
80211;SDS011;70434;37.956;23.722;2023-08-20T03:04:16;9.75;;;4.35;;
80211;SDS011;70434;37.956;23.722;2023-08-20T03:06:42;9.93;;;4.65;;
80211;SDS011;70434;37.956;23.722;2023-08-20T03:09:09;11.10;;;5.10;;
80211;SDS011;70434;37.956;23.722;2023-08-20T03:11:34;8.32;;;4.45;;
80211;SDS011;70434;37.956;23.722;2023-08-20T03:14:00;6.55;;;4.43;;
80211;SDS011;70434;37.956;23.722;2023-08-20T03:16:26;5.93;;;4.15;;
80211;SDS011;70434;37.956;23.722;2023-08-20T03:18:52;7.57;;;4.78;;
80211;SDS011;70434;37.956;23.722;2023-08-20T03:21:17;7.82;;;4.40;;
80211;SDS011;70434;37.956;23.722;2023-08-20T03:23:43;7.93;;;4.32;;
80211;SDS011;70434;37.956;23.722;2023-08-20T03:26:09;7.30;;;4.00;;
80211;SDS011;70434;37.956;23.722;2023-08-20T03:28:34;9.60;;;4.38;;
80211;SDS011;70434;37.956;23.722;2023-08-20T03:31:00;9.20;;;4.50;;
80211;SDS011;70434;37.956;23.722;2023-08-20T03:33:26;13.30;;;5.00;;
80211;SDS011;70434;37.956;23.722;2023-08-20T03:35:52;9.63;;;4.85;;
80211;SDS011;70434;37.956;23.722;2023-08-20T03:38:17;9.88;;;4.80;;
80211;SDS011;70434;37.956;23.722;2023-08-20T03:40:43;10.05;;;4.60;;
80211;SDS011;70434;37.956;23.722;2023-08-20T03:43:10;12.25;;;4.55;;
80211;SDS011;70434;37.956;23.722;2023-08-20T03:45:36;9.95;;;4.28;;
80211;SDS011;70434;37.956;23.722;2023-08-20T03:48:01;8.65;;;4.78;;
80211;SDS011;70434;37.956;23.722;2023-08-20T03:50:27;9.52;;;4.50;;
80211;SDS011;70434;37.956;23.722;2023-08-20T03:52:53;9.98;;;4.30;;
80211;SDS011;70434;37.956;23.722;2023-08-20T03:55:19;10.68;;;4.68;;
80211;SDS011;70434;37.956;23.722;2023-08-20T03:57:44;10.50;;;5.18;;
80211;SDS011;70434;37.956;23.722;2023-08-20T04:00:10;9.00;;;4.60;;
80211;SDS011;70434;37.956;23.722;2023-08-20T04:02:37;8.65;;;5.30;;
80211;SDS011;70434;37.956;23.722;2023-08-20T04:05:03;8.52;;;4.70;;
80211;SDS011;70434;37.956;23.722;2023-08-20T04:07:29;9.15;;;5.35;;
80211;SDS011;70434;37.956;23.722;2023-08-20T04:09:55;7.70;;;4.68;;
80211;SDS011;70434;37.956;23.722;2023-08-20T04:12:21;7.47;;;4.35;;
80211;SDS011;70434;37.956;23.722;2023-08-20T04:14:46;8.05;;;5.00;;
80211;SDS011;70434;37.956;23.722;2023-08-20T04:17:12;6.88;;;4.30;;
80211;SDS011;70434;37.956;23.722;2023-08-20T04:19:38;6.90;;;4.60;;
80211;SDS011;70434;37.956;23.722;2023-08-20T04:22:03;11.43;;;5.15;;
80211;SDS011;70434;37.956;23.722;2023-08-20T04:24:29;11.07;;;4.90;;
80211;SDS011;70434;37.956;23.722;2023-08-20T04:26:55;13.73;;;5.68;;
80211;SDS011;70434;37.956;23.722;2023-08-20T04:29:22;7.68;;;4.90;;
80211;SDS011;70434;37.956;23.722;2023-08-20T04:31:47;12.77;;;5.28;;
80211;SDS011;70434;37.956;23.722;2023-08-20T04:34:13;9.07;;;4.75;;
80211;SDS011;70434;37.956;23.722;2023-08-20T04:36:39;8.82;;;5.00;;
80211;SDS011;70434;37.956;23.722;2023-08-20T04:39:04;9.77;;;4.90;;
80211;SDS011;70434;37.956;23.722;2023-08-20T04:41:30;11.60;;;5.03;;
80211;SDS011;70434;37.956;23.722;2023-08-20T04:43:56;7.57;;;4.90;;
80211;SDS011;70434;37.956;23.722;2023-08-20T04:46:22;15.32;;;5.25;;
80211;SDS011;70434;37.956;23.722;2023-08-20T04:48:47;8.77;;;4.70;;
80211;SDS011;70434;37.956;23.722;2023-08-20T04:51:13;10.02;;;5.38;;
80211;SDS011;70434;37.956;23.722;2023-08-20T04:53:39;13.48;;;5.13;;
80211;SDS011;70434;37.956;23.722;2023-08-20T04:56:04;11.77;;;4.93;;
80211;SDS011;70434;37.956;23.722;2023-08-20T04:58:30;8.55;;;5.10;;
80211;SDS011;70434;37.956;23.722;2023-08-20T05:00:56;8.88;;;5.32;;
80211;SDS011;70434;37.956;23.722;2023-08-20T05:03:22;8.10;;;5.20;;
80211;SDS011;70434;37.956;23.722;2023-08-20T05:05:48;7.47;;;5.05;;
80211;SDS011;70434;37.956;23.722;2023-08-20T05:08:14;8.57;;;5.43;;
80211;SDS011;70434;37.956;23.722;2023-08-20T05:10:40;10.18;;;5.57;;
80211;SDS011;70434;37.956;23.722;2023-08-20T05:13:06;9.38;;;5.30;;
80211;SDS011;70434;37.956;23.722;2023-08-20T05:15:31;10.68;;;5.15;;
80211;SDS011;70434;37.956;23.722;2023-08-20T05:17:57;12.40;;;6.13;;
80211;SDS011;70434;37.956;23.722;2023-08-20T05:20:23;9.27;;;5.85;;
80211;SDS011;70434;37.956;23.722;2023-08-20T05:22:48;11.63;;;5.50;;
80211;SDS011;70434;37.956;23.722;2023-08-20T05:25:14;11.70;;;6.10;;
80211;SDS011;70434;37.956;23.722;2023-08-20T05:27:40;9.77;;;6.00;;
80211;SDS011;70434;37.956;23.722;2023-08-20T05:30:06;10.55;;;5.93;;
80211;SDS011;70434;37.956;23.722;2023-08-20T05:32:33;9.52;;;5.00;;
80211;SDS011;70434;37.956;23.722;2023-08-20T05:34:59;11.05;;;5.90;;
80211;SDS011;70434;37.956;23.722;2023-08-20T05:37:24;9.23;;;6.35;;
80211;SDS011;70434;37.956;23.722;2023-08-20T05:39:50;8.85;;;6.20;;
80211;SDS011;70434;37.956;23.722;2023-08-20T05:42:18;11.10;;;5.63;;
80211;SDS011;70434;37.956;23.722;2023-08-20T05:44:44;11.98;;;5.35;;
80211;SDS011;70434;37.956;23.722;2023-08-20T05:47:10;8.43;;;5.50;;
80211;SDS011;70434;37.956;23.722;2023-08-20T05:49:35;13.73;;;6.18;;
80211;SDS011;70434;37.956;23.722;2023-08-20T05:52:01;12.85;;;6.10;;
80211;SDS011;70434;37.956;23.722;2023-08-20T05:54:27;10.50;;;5.70;;
80211;SDS011;70434;37.956;23.722;2023-08-20T05:56:53;9.68;;;5.78;;
80211;SDS011;70434;37.956;23.722;2023-08-20T05:59:19;11.65;;;6.00;;
80211;SDS011;70434;37.956;23.722;2023-08-20T06:01:44;10.60;;;5.30;;
80211;SDS011;70434;37.956;23.722;2023-08-20T06:04:10;13.80;;;6.20;;
80211;SDS011;70434;37.956;23.722;2023-08-20T06:06:36;8.95;;;5.85;;
80211;SDS011;70434;37.956;23.722;2023-08-20T06:09:02;13.73;;;6.38;;
80211;SDS011;70434;37.956;23.722;2023-08-20T06:11:27;10.68;;;5.50;;
80211;SDS011;70434;37.956;23.722;2023-08-20T06:13:53;9.15;;;5.80;;
80211;SDS011;70434;37.956;23.722;2023-08-20T06:16:19;10.20;;;6.20;;
80211;SDS011;70434;37.956;23.722;2023-08-20T06:18:44;10.32;;;6.47;;
80211;SDS011;70434;37.956;23.722;2023-08-20T06:21:10;9.18;;;5.63;;
80211;SDS011;70434;37.956;23.722;2023-08-20T06:23:36;10.68;;;6.18;;
80211;SDS011;70434;37.956;23.722;2023-08-20T06:26:02;7.63;;;5.95;;
80211;SDS011;70434;37.956;23.722;2023-08-20T06:28:27;9.77;;;6.28;;
80211;SDS011;70434;37.956;23.722;2023-08-20T06:30:53;13.23;;;7.18;;
80211;SDS011;70434;37.956;23.722;2023-08-20T06:33:19;8.07;;;6.00;;
80211;SDS011;70434;37.956;23.722;2023-08-20T06:35:44;9.38;;;6.13;;
80211;SDS011;70434;37.956;23.722;2023-08-20T06:38:10;12.82;;;6.85;;
80211;SDS011;70434;37.956;23.722;2023-08-20T06:40:36;10.98;;;6.15;;
80211;SDS011;70434;37.956;23.722;2023-08-20T06:43:02;11.07;;;6.85;;
80211;SDS011;70434;37.956;23.722;2023-08-20T06:45:28;8.63;;;6.65;;
80211;SDS011;70434;37.956;23.722;2023-08-20T06:47:54;12.82;;;8.18;;
80211;SDS011;70434;37.956;23.722;2023-08-20T06:50:20;11.00;;;6.75;;
80211;SDS011;70434;37.956;23.722;2023-08-20T06:52:46;14.30;;;6.85;;
80211;SDS011;70434;37.956;23.722;2023-08-20T06:55:11;9.27;;;6.63;;
80211;SDS011;70434;37.956;23.722;2023-08-20T06:57:37;12.50;;;6.80;;
80211;SDS011;70434;37.956;23.722;2023-08-20T07:00:03;15.70;;;7.15;;
80211;SDS011;70434;37.956;23.722;2023-08-20T07:02:32;9.40;;;6.80;;
80211;SDS011;70434;37.956;23.722;2023-08-20T07:04:57;12.05;;;7.20;;
80211;SDS011;70434;37.956;23.722;2023-08-20T07:07:23;11.07;;;7.20;;
80211;SDS011;70434;37.956;23.722;2023-08-20T07:09:49;8.55;;;6.50;;
80211;SDS011;70434;37.956;23.722;2023-08-20T07:12:15;10.07;;;7.22;;
80211;SDS011;70434;37.956;23.722;2023-08-20T07:14:41;16.33;;;6.80;;
80211;SDS011;70434;37.956;23.722;2023-08-20T07:17:07;10.93;;;6.93;;
80211;SDS011;70434;37.956;23.722;2023-08-20T07:19:33;8.93;;;7.22;;
80211;SDS011;70434;37.956;23.722;2023-08-20T07:21:58;15.77;;;7.30;;
80211;SDS011;70434;37.956;23.722;2023-08-20T07:24:24;10.52;;;6.95;;
80211;SDS011;70434;37.956;23.722;2023-08-20T07:26:53;13.02;;;7.45;;
80211;SDS011;70434;37.956;23.722;2023-08-20T07:29:26;12.50;;;7.10;;
80211;SDS011;70434;37.956;23.722;2023-08-20T07:31:54;12.10;;;6.85;;
80211;SDS011;70434;37.956;23.722;2023-08-20T07:34:21;10.23;;;6.50;;
80211;SDS011;70434;37.956;23.722;2023-08-20T07:36:46;13.98;;;7.40;;
80211;SDS011;70434;37.956;23.722;2023-08-20T07:39:12;14.18;;;7.53;;
80211;SDS011;70434;37.956;23.722;2023-08-20T07:41:39;14.88;;;8.18;;
80211;SDS011;70434;37.956;23.722;2023-08-20T07:44:05;10.85;;;7.25;;
80211;SDS011;70434;37.956;23.722;2023-08-20T07:46:31;12.70;;;7.40;;
80211;SDS011;70434;37.956;23.722;2023-08-20T07:48:57;11.48;;;7.13;;
80211;SDS011;70434;37.956;23.722;2023-08-20T07:51:23;13.63;;;7.38;;
80211;SDS011;70434;37.956;23.722;2023-08-20T07:53:49;14.40;;;7.63;;
80211;SDS011;70434;37.956;23.722;2023-08-20T07:56:14;12.30;;;7.00;;
80211;SDS011;70434;37.956;23.722;2023-08-20T07:58:40;11.10;;;7.10;;
80211;SDS011;70434;37.956;23.722;2023-08-20T08:01:06;15.25;;;7.45;;
80211;SDS011;70434;37.956;23.722;2023-08-20T08:03:32;12.95;;;7.18;;
80211;SDS011;70434;37.956;23.722;2023-08-20T08:05:58;10.52;;;7.15;;
80211;SDS011;70434;37.956;23.722;2023-08-20T08:08:24;11.10;;;7.40;;
80211;SDS011;70434;37.956;23.722;2023-08-20T08:10:50;11.60;;;7.45;;
80211;SDS011;70434;37.956;23.722;2023-08-20T08:13:19;14.40;;;7.13;;
80211;SDS011;70434;37.956;23.722;2023-08-20T08:15:47;10.82;;;7.47;;
80211;SDS011;70434;37.956;23.722;2023-08-20T08:18:13;15.88;;;8.23;;
80211;SDS011;70434;37.956;23.722;2023-08-20T08:20:39;10.05;;;7.38;;
80211;SDS011;70434;37.956;23.722;2023-08-20T08:23:04;12.07;;;7.63;;
80211;SDS011;70434;37.956;23.722;2023-08-20T08:25:30;12.40;;;7.30;;
80211;SDS011;70434;37.956;23.722;2023-08-20T08:27:56;12.00;;;8.13;;
80211;SDS011;70434;37.956;23.722;2023-08-20T08:30:22;11.25;;;7.72;;
80211;SDS011;70434;37.956;23.722;2023-08-20T08:32:49;11.65;;;7.65;;
80211;SDS011;70434;37.956;23.722;2023-08-20T08:35:14;12.27;;;7.38;;
80211;SDS011;70434;37.956;23.722;2023-08-20T08:37:41;13.13;;;7.22;;
80211;SDS011;70434;37.956;23.722;2023-08-20T08:40:07;13.38;;;7.95;;
80211;SDS011;70434;37.956;23.722;2023-08-20T08:42:34;9.70;;;7.40;;
80211;SDS011;70434;37.956;23.722;2023-08-20T08:45:00;12.45;;;8.02;;
80211;SDS011;70434;37.956;23.722;2023-08-20T08:47:26;10.43;;;7.45;;
80211;SDS011;70434;37.956;23.722;2023-08-20T08:49:54;11.43;;;7.50;;
80211;SDS011;70434;37.956;23.722;2023-08-20T08:52:22;11.02;;;7.47;;
80211;SDS011;70434;37.956;23.722;2023-08-20T08:54:48;27.17;;;8.02;;
80211;SDS011;70434;37.956;23.722;2023-08-20T08:57:14;15.00;;;7.60;;
80211;SDS011;70434;37.956;23.722;2023-08-20T08:59:41;12.02;;;7.50;;
80211;SDS011;70434;37.956;23.722;2023-08-20T09:02:10;15.05;;;7.30;;
80211;SDS011;70434;37.956;23.722;2023-08-20T09:04:40;12.80;;;7.20;;
80211;SDS011;70434;37.956;23.722;2023-08-20T09:07:13;10.68;;;6.95;;
80211;SDS011;70434;37.956;23.722;2023-08-20T09:09:43;13.68;;;7.65;;
80211;SDS011;70434;37.956;23.722;2023-08-20T09:12:16;12.00;;;7.32;;
80211;SDS011;70434;37.956;23.722;2023-08-20T09:14:44;11.18;;;7.30;;
80211;SDS011;70434;37.956;23.722;2023-08-20T09:17:12;10.50;;;7.88;;
80211;SDS011;70434;37.956;23.722;2023-08-20T09:19:38;11.98;;;6.85;;
80211;SDS011;70434;37.956;23.722;2023-08-20T09:22:04;11.30;;;7.28;;
80211;SDS011;70434;37.956;23.722;2023-08-20T09:24:33;16.60;;;7.68;;
80211;SDS011;70434;37.956;23.722;2023-08-20T09:27:04;10.95;;;7.18;;
80211;SDS011;70434;37.956;23.722;2023-08-20T09:29:34;10.68;;;7.03;;
80211;SDS011;70434;37.956;23.722;2023-08-20T09:38:37;12.73;;;7.07;;
80211;SDS011;70434;37.956;23.722;2023-08-20T09:41:03;12.55;;;6.97;;
80211;SDS011;70434;37.956;23.722;2023-08-20T09:43:33;12.85;;;7.70;;
80211;SDS011;70434;37.956;23.722;2023-08-20T09:46:03;12.18;;;7.20;;
80211;SDS011;70434;37.956;23.722;2023-08-20T09:48:33;10.52;;;6.53;;
80211;SDS011;70434;37.956;23.722;2023-08-20T09:51:04;13.52;;;7.43;;
80211;SDS011;70434;37.956;23.722;2023-08-20T09:53:34;8.82;;;6.35;;
80211;SDS011;70434;37.956;23.722;2023-08-20T09:56:10;12.70;;;6.80;;
80211;SDS011;70434;37.956;23.722;2023-08-20T09:58:45;12.25;;;7.05;;
80211;SDS011;70434;37.956;23.722;2023-08-20T10:01:13;11.35;;;6.90;;
80211;SDS011;70434;37.956;23.722;2023-08-20T10:03:39;10.95;;;7.32;;
80211;SDS011;70434;37.956;23.722;2023-08-20T10:06:08;9.52;;;6.47;;
80211;SDS011;70434;37.956;23.722;2023-08-20T10:08:34;11.30;;;6.30;;
80211;SDS011;70434;37.956;23.722;2023-08-20T10:11:01;9.68;;;5.80;;
80211;SDS011;70434;37.956;23.722;2023-08-20T10:13:27;8.90;;;6.43;;
80211;SDS011;70434;37.956;23.722;2023-08-20T10:15:53;15.52;;;6.82;;
80211;SDS011;70434;37.956;23.722;2023-08-20T10:18:20;8.43;;;6.10;;
80211;SDS011;70434;37.956;23.722;2023-08-20T10:20:49;12.80;;;6.32;;
80211;SDS011;70434;37.956;23.722;2023-08-20T10:23:16;11.18;;;6.63;;
80211;SDS011;70434;37.956;23.722;2023-08-20T10:25:51;11.77;;;6.63;;
80211;SDS011;70434;37.956;23.722;2023-08-20T10:28:24;10.73;;;6.05;;
80211;SDS011;70434;37.956;23.722;2023-08-20T10:31:04;9.00;;;6.15;;
80211;SDS011;70434;37.956;23.722;2023-08-20T10:33:34;11.70;;;6.43;;
80211;SDS011;70434;37.956;23.722;2023-08-20T10:36:08;8.90;;;6.32;;
80211;SDS011;70434;37.956;23.722;2023-08-20T10:38:42;10.35;;;6.70;;
80211;SDS011;70434;37.956;23.722;2023-08-20T10:41:10;12.65;;;6.25;;
80211;SDS011;70434;37.956;23.722;2023-08-20T10:43:40;9.90;;;6.05;;
80211;SDS011;70434;37.956;23.722;2023-08-20T10:46:15;10.93;;;6.03;;
80211;SDS011;70434;37.956;23.722;2023-08-20T10:48:46;9.30;;;5.68;;
80211;SDS011;70434;37.956;23.722;2023-08-20T10:51:26;8.88;;;6.15;;
80211;SDS011;70434;37.956;23.722;2023-08-20T10:56:38;11.45;;;5.70;;
80211;SDS011;70434;37.956;23.722;2023-08-20T11:01:57;10.60;;;6.45;;
80211;SDS011;70434;37.956;23.722;2023-08-20T11:04:30;12.13;;;6.20;;
80211;SDS011;70434;37.956;23.722;2023-08-20T11:07:00;11.75;;;6.28;;
80211;SDS011;70434;37.956;23.722;2023-08-20T11:09:27;8.30;;;5.88;;
80211;SDS011;70434;37.956;23.722;2023-08-20T11:11:54;10.85;;;6.20;;
80211;SDS011;70434;37.956;23.722;2023-08-20T11:14:21;12.45;;;6.32;;
80211;SDS011;70434;37.956;23.722;2023-08-20T11:16:47;8.48;;;5.90;;
80211;SDS011;70434;37.956;23.722;2023-08-20T11:19:22;10.98;;;6.05;;
80211;SDS011;70434;37.956;23.722;2023-08-20T11:21:48;9.65;;;5.50;;
80211;SDS011;70434;37.956;23.722;2023-08-20T11:24:15;13.63;;;6.00;;
80211;SDS011;70434;37.956;23.722;2023-08-20T11:26:43;9.07;;;6.18;;
80211;SDS011;70434;37.956;23.722;2023-08-20T11:29:09;8.88;;;6.07;;
80211;SDS011;70434;37.956;23.722;2023-08-20T11:31:44;10.73;;;6.25;;
80211;SDS011;70434;37.956;23.722;2023-08-20T11:34:11;10.73;;;5.85;;
80211;SDS011;70434;37.956;23.722;2023-08-20T11:36:38;9.90;;;6.03;;
80211;SDS011;70434;37.956;23.722;2023-08-20T11:39:04;21.52;;;6.90;;
80211;SDS011;70434;37.956;23.722;2023-08-20T11:41:31;8.50;;;6.07;;
80211;SDS011;70434;37.956;23.722;2023-08-20T11:44:00;8.40;;;5.65;;
80211;SDS011;70434;37.956;23.722;2023-08-20T11:46:26;21.48;;;7.00;;
80211;SDS011;70434;37.956;23.722;2023-08-20T11:49:08;12.57;;;5.78;;
80211;SDS011;70434;37.956;23.722;2023-08-20T11:51:35;9.00;;;5.38;;
80211;SDS011;70434;37.956;23.722;2023-08-20T11:54:04;9.93;;;5.45;;
80211;SDS011;70434;37.956;23.722;2023-08-20T11:56:42;11.85;;;5.78;;
80211;SDS011;70434;37.956;23.722;2023-08-20T11:59:10;9.20;;;6.20;;
80211;SDS011;70434;37.956;23.722;2023-08-20T12:01:36;11.80;;;6.55;;
80211;SDS011;70434;37.956;23.722;2023-08-20T12:04:03;11.38;;;5.97;;
80211;SDS011;70434;37.956;23.722;2023-08-20T12:06:30;12.73;;;6.10;;
80211;SDS011;70434;37.956;23.722;2023-08-20T12:08:59;10.35;;;5.85;;
80211;SDS011;70434;37.956;23.722;2023-08-20T12:11:26;16.73;;;6.75;;
80211;SDS011;70434;37.956;23.722;2023-08-20T12:13:53;13.48;;;6.00;;
80211;SDS011;70434;37.956;23.722;2023-08-20T12:16:21;10.63;;;6.07;;
80211;SDS011;70434;37.956;23.722;2023-08-20T12:18:48;13.23;;;6.35;;
80211;SDS011;70434;37.956;23.722;2023-08-20T12:21:14;11.52;;;6.65;;
80211;SDS011;70434;37.956;23.722;2023-08-20T12:23:40;16.25;;;6.78;;
80211;SDS011;70434;37.956;23.722;2023-08-20T12:26:05;16.88;;;6.38;;
80211;SDS011;70434;37.956;23.722;2023-08-20T12:28:32;16.60;;;7.05;;
80211;SDS011;70434;37.956;23.722;2023-08-20T12:30:59;12.25;;;6.53;;
80211;SDS011;70434;37.956;23.722;2023-08-20T12:33:25;13.80;;;6.80;;
80211;SDS011;70434;37.956;23.722;2023-08-20T12:35:53;11.73;;;6.70;;
80211;SDS011;70434;37.956;23.722;2023-08-20T12:38:19;11.27;;;6.65;;
80211;SDS011;70434;37.956;23.722;2023-08-20T12:40:45;11.63;;;6.78;;
80211;SDS011;70434;37.956;23.722;2023-08-20T12:43:11;10.43;;;6.75;;
80211;SDS011;70434;37.956;23.722;2023-08-20T12:45:37;10.77;;;6.03;;
80211;SDS011;70434;37.956;23.722;2023-08-20T12:48:03;12.23;;;6.45;;
80211;SDS011;70434;37.956;23.722;2023-08-20T12:50:30;10.82;;;6.68;;
80211;SDS011;70434;37.956;23.722;2023-08-20T12:52:56;10.68;;;5.65;;
80211;SDS011;70434;37.956;23.722;2023-08-20T12:55:21;9.25;;;5.90;;
80211;SDS011;70434;37.956;23.722;2023-08-20T12:58:07;10.27;;;5.93;;
80211;SDS011;70434;37.956;23.722;2023-08-20T13:00:32;9.20;;;6.38;;
80211;SDS011;70434;37.956;23.722;2023-08-20T13:02:58;13.73;;;6.25;;
80211;SDS011;70434;37.956;23.722;2023-08-20T13:05:24;12.55;;;5.93;;
80211;SDS011;70434;37.956;23.722;2023-08-20T13:07:51;8.88;;;5.78;;
80211;SDS011;70434;37.956;23.722;2023-08-20T13:10:17;10.95;;;6.18;;
80211;SDS011;70434;37.956;23.722;2023-08-20T13:12:48;10.10;;;6.13;;
80211;SDS011;70434;37.956;23.722;2023-08-20T13:15:17;10.40;;;6.22;;
80211;SDS011;70434;37.956;23.722;2023-08-20T13:17:45;9.77;;;6.47;;
80211;SDS011;70434;37.956;23.722;2023-08-20T13:20:12;9.48;;;6.18;;
80211;SDS011;70434;37.956;23.722;2023-08-20T13:22:37;9.25;;;6.55;;
80211;SDS011;70434;37.956;23.722;2023-08-20T13:25:03;11.48;;;6.18;;
80211;SDS011;70434;37.956;23.722;2023-08-20T13:27:30;21.08;;;6.78;;
80211;SDS011;70434;37.956;23.722;2023-08-20T13:29:56;21.80;;;6.75;;
80211;SDS011;70434;37.956;23.722;2023-08-20T13:32:22;13.43;;;6.95;;
80211;SDS011;70434;37.956;23.722;2023-08-20T13:34:49;12.85;;;6.47;;
80211;SDS011;70434;37.956;23.722;2023-08-20T13:37:15;20.20;;;7.05;;
80211;SDS011;70434;37.956;23.722;2023-08-20T13:39:41;44.60;;;9.85;;
80211;SDS011;70434;37.956;23.722;2023-08-20T13:42:06;19.27;;;6.75;;
80211;SDS011;70434;37.956;23.722;2023-08-20T13:44:32;8.10;;;6.47;;
80211;SDS011;70434;37.956;23.722;2023-08-20T13:46:58;11.07;;;7.63;;
80211;SDS011;70434;37.956;23.722;2023-08-20T13:49:24;11.73;;;6.97;;
80211;SDS011;70434;37.956;23.722;2023-08-20T13:51:50;27.23;;;7.97;;
80211;SDS011;70434;37.956;23.722;2023-08-20T13:54:16;10.15;;;6.43;;
80211;SDS011;70434;37.956;23.722;2023-08-20T13:56:42;12.45;;;6.30;;
80211;SDS011;70434;37.956;23.722;2023-08-20T13:59:10;11.27;;;6.65;;
80211;SDS011;70434;37.956;23.722;2023-08-20T14:01:36;11.52;;;6.68;;
80211;SDS011;70434;37.956;23.722;2023-08-20T14:04:02;9.75;;;6.22;;
80211;SDS011;70434;37.956;23.722;2023-08-20T14:06:28;15.18;;;6.38;;
80211;SDS011;70434;37.956;23.722;2023-08-20T14:08:54;12.77;;;6.80;;
80211;SDS011;70434;37.956;23.722;2023-08-20T14:11:20;11.38;;;6.85;;
80211;SDS011;70434;37.956;23.722;2023-08-20T14:13:46;12.13;;;6.10;;
80211;SDS011;70434;37.956;23.722;2023-08-20T14:16:13;11.48;;;7.07;;
80211;SDS011;70434;37.956;23.722;2023-08-20T14:18:38;11.45;;;6.85;;
80211;SDS011;70434;37.956;23.722;2023-08-20T14:21:04;11.95;;;6.80;;
80211;SDS011;70434;37.956;23.722;2023-08-20T14:23:30;10.63;;;7.07;;
80211;SDS011;70434;37.956;23.722;2023-08-20T14:25:56;10.68;;;7.18;;
80211;SDS011;70434;37.956;23.722;2023-08-20T14:28:22;11.55;;;6.80;;
80211;SDS011;70434;37.956;23.722;2023-08-20T14:30:48;8.40;;;6.57;;
80211;SDS011;70434;37.956;23.722;2023-08-20T14:33:15;12.68;;;6.60;;
80211;SDS011;70434;37.956;23.722;2023-08-20T14:35:41;9.93;;;6.20;;
80211;SDS011;70434;37.956;23.722;2023-08-20T14:38:07;11.88;;;7.45;;
80211;SDS011;70434;37.956;23.722;2023-08-20T14:40:36;9.88;;;7.18;;
80211;SDS011;70434;37.956;23.722;2023-08-20T14:43:04;11.80;;;7.32;;
80211;SDS011;70434;37.956;23.722;2023-08-20T14:45:33;13.20;;;6.72;;